sensor_id;sensor_type;location;lat;lon;timestamp;temperature;humidity
23869;DHT22;12115;47.128;15.422;2022-07-29T00:01:01;20.20;99.90
23869;DHT22;12115;47.128;15.422;2022-07-29T00:03:29;20.20;99.90
23869;DHT22;12115;47.128;15.422;2022-07-29T00:05:56;20.20;99.90
23869;DHT22;12115;47.128;15.422;2022-07-29T00:08:23;20.10;99.90
23869;DHT22;12115;47.128;15.422;2022-07-29T00:10:50;20.20;99.90
23869;DHT22;12115;47.128;15.422;2022-07-29T00:13:18;20.20;99.90
23869;DHT22;12115;47.128;15.422;2022-07-29T00:15:59;20.20;99.90
23869;DHT22;12115;47.128;15.422;2022-07-29T00:18:31;20.10;99.90
23869;DHT22;12115;47.128;15.422;2022-07-29T00:20:58;20.10;99.90
23869;DHT22;12115;47.128;15.422;2022-07-29T00:23:26;20.00;99.90
23869;DHT22;12115;47.128;15.422;2022-07-29T00:25:53;20.10;99.90
23869;DHT22;12115;47.128;15.422;2022-07-29T00:28:20;20.10;99.90
23869;DHT22;12115;47.128;15.422;2022-07-29T00:30:47;20.10;99.90
23869;DHT22;12115;47.128;15.422;2022-07-29T00:33:14;20.00;99.90
23869;DHT22;12115;47.128;15.422;2022-07-29T00:35:41;20.00;99.90
23869;DHT22;12115;47.128;15.422;2022-07-29T00:38:15;20.10;99.90
23869;DHT22;12115;47.128;15.422;2022-07-29T00:40:42;20.00;99.90
23869;DHT22;12115;47.128;15.422;2022-07-29T00:43:11;20.00;99.90
23869;DHT22;12115;47.128;15.422;2022-07-29T00:45:39;20.00;99.90
23869;DHT22;12115;47.128;15.422;2022-07-29T00:48:06;19.90;99.90
23869;DHT22;12115;47.128;15.422;2022-07-29T00:50:36;20.00;99.90
23869;DHT22;12115;47.128;15.422;2022-07-29T00:53:05;20.00;99.90
23869;DHT22;12115;47.128;15.422;2022-07-29T00:55:33;20.00;99.90
23869;DHT22;12115;47.128;15.422;2022-07-29T00:58:00;19.90;99.90
23869;DHT22;12115;47.128;15.422;2022-07-29T01:00:28;20.00;99.90
23869;DHT22;12115;47.128;15.422;2022-07-29T01:02:56;20.00;99.90
23869;DHT22;12115;47.128;15.422;2022-07-29T01:05:25;20.00;99.90
23869;DHT22;12115;47.128;15.422;2022-07-29T01:08:14;20.10;99.90
23869;DHT22;12115;47.128;15.422;2022-07-29T01:10:42;20.00;99.90
23869;DHT22;12115;47.128;15.422;2022-07-29T01:13:11;20.00;99.90
23869;DHT22;12115;47.128;15.422;2022-07-29T01:15:44;20.00;99.90
23869;DHT22;12115;47.128;15.422;2022-07-29T01:18:24;20.00;99.90
23869;DHT22;12115;47.128;15.422;2022-07-29T01:23:58;20.10;99.90
23869;DHT22;12115;47.128;15.422;2022-07-29T01:29:06;20.00;99.90
23869;DHT22;12115;47.128;15.422;2022-07-29T01:34:53;19.80;99.90
23869;DHT22;12115;47.128;15.422;2022-07-29T01:37:22;19.90;99.90
23869;DHT22;12115;47.128;15.422;2022-07-29T01:39:53;19.90;99.90
23869;DHT22;12115;47.128;15.422;2022-07-29T01:42:43;19.80;99.90
23869;DHT22;12115;47.128;15.422;2022-07-29T01:45:21;19.70;99.90
23869;DHT22;12115;47.128;15.422;2022-07-29T01:47:54;19.70;99.90
23869;DHT22;12115;47.128;15.422;2022-07-29T01:50:28;19.80;99.90
23869;DHT22;12115;47.128;15.422;2022-07-29T01:52:59;19.80;99.90
23869;DHT22;12115;47.128;15.422;2022-07-29T01:55:29;19.80;99.90
23869;DHT22;12115;47.128;15.422;2022-07-29T01:57:58;19.80;99.90
23869;DHT22;12115;47.128;15.422;2022-07-29T02:00:27;19.80;99.90
23869;DHT22;12115;47.128;15.422;2022-07-29T02:02:56;19.80;99.90
23869;DHT22;12115;47.128;15.422;2022-07-29T02:05:27;19.80;99.90
23869;DHT22;12115;47.128;15.422;2022-07-29T02:07:55;19.80;99.90
23869;DHT22;12115;47.128;15.422;2022-07-29T02:10:26;19.70;99.90
23869;DHT22;12115;47.128;15.422;2022-07-29T02:12:56;19.70;99.90
23869;DHT22;12115;47.128;15.422;2022-07-29T02:15:28;19.70;99.90
23869;DHT22;12115;47.128;15.422;2022-07-29T02:18:02;19.60;99.90
23869;DHT22;12115;47.128;15.422;2022-07-29T02:20:31;19.50;99.90
23869;DHT22;12115;47.128;15.422;2022-07-29T02:22:59;19.50;99.90
23869;DHT22;12115;47.128;15.422;2022-07-29T02:25:27;19.50;99.90
23869;DHT22;12115;47.128;15.422;2022-07-29T02:28:04;19.50;99.90
23869;DHT22;12115;47.128;15.422;2022-07-29T02:30:33;19.60;99.90
23869;DHT22;12115;47.128;15.422;2022-07-29T02:33:03;19.50;99.90
23869;DHT22;12115;47.128;15.422;2022-07-29T02:35:31;19.50;99.90
23869;DHT22;12115;47.128;15.422;2022-07-29T02:38:01;19.50;99.90
23869;DHT22;12115;47.128;15.422;2022-07-29T02:40:48;19.40;99.90
23869;DHT22;12115;47.128;15.422;2022-07-29T02:43:17;19.40;99.90
23869;DHT22;12115;47.128;15.422;2022-07-29T02:45:47;19.40;99.90
23869;DHT22;12115;47.128;15.422;2022-07-29T02:48:22;19.20;99.90
23869;DHT22;12115;47.128;15.422;2022-07-29T02:50:58;19.10;99.90
23869;DHT22;12115;47.128;15.422;2022-07-29T02:53:32;19.20;99.90
23869;DHT22;12115;47.128;15.422;2022-07-29T02:56:10;19.20;99.90
23869;DHT22;12115;47.128;15.422;2022-07-29T02:58:54;19.20;99.90
23869;DHT22;12115;47.128;15.422;2022-07-29T03:01:27;19.20;99.90
23869;DHT22;12115;47.128;15.422;2022-07-29T03:03:56;19.10;99.90
23869;DHT22;12115;47.128;15.422;2022-07-29T03:06:25;19.10;99.90
23869;DHT22;12115;47.128;15.422;2022-07-29T03:09:06;19.10;99.90
23869;DHT22;12115;47.128;15.422;2022-07-29T03:11:40;19.10;99.90
23869;DHT22;12115;47.128;15.422;2022-07-29T03:14:19;19.00;99.90
23869;DHT22;12115;47.128;15.422;2022-07-29T03:16:48;19.00;99.90
23869;DHT22;12115;47.128;15.422;2022-07-29T03:19:16;19.00;99.90
23869;DHT22;12115;47.128;15.422;2022-07-29T03:21:43;18.90;99.90
23869;DHT22;12115;47.128;15.422;2022-07-29T03:24:16;19.00;99.90
23869;DHT22;12115;47.128;15.422;2022-07-29T03:26:50;18.90;99.90
23869;DHT22;12115;47.128;15.422;2022-07-29T03:29:17;18.80;99.90
23869;DHT22;12115;47.128;15.422;2022-07-29T03:31:45;18.80;99.90
23869;DHT22;12115;47.128;15.422;2022-07-29T03:34:14;18.80;99.90
23869;DHT22;12115;47.128;15.422;2022-07-29T03:36:41;18.80;99.90
23869;DHT22;12115;47.128;15.422;2022-07-29T03:39:09;18.60;99.90
23869;DHT22;12115;47.128;15.422;2022-07-29T03:41:38;18.50;99.90
23869;DHT22;12115;47.128;15.422;2022-07-29T03:44:06;18.50;99.90
23869;DHT22;12115;47.128;15.422;2022-07-29T03:46:36;18.60;99.90
23869;DHT22;12115;47.128;15.422;2022-07-29T03:49:06;18.50;99.90
23869;DHT22;12115;47.128;15.422;2022-07-29T03:51:35;18.50;99.90
23869;DHT22;12115;47.128;15.422;2022-07-29T03:54:03;18.50;99.90
23869;DHT22;12115;47.128;15.422;2022-07-29T03:56:40;18.50;99.90
23869;DHT22;12115;47.128;15.422;2022-07-29T03:59:08;18.30;99.90
23869;DHT22;12115;47.128;15.422;2022-07-29T04:01:37;18.40;99.90
23869;DHT22;12115;47.128;15.422;2022-07-29T04:04:04;18.40;99.90
23869;DHT22;12115;47.128;15.422;2022-07-29T04:06:42;18.50;99.90
23869;DHT22;12115;47.128;15.422;2022-07-29T04:09:09;18.40;99.90
23869;DHT22;12115;47.128;15.422;2022-07-29T04:11:39;18.30;99.90
23869;DHT22;12115;47.128;15.422;2022-07-29T04:14:26;18.30;99.90
23869;DHT22;12115;47.128;15.422;2022-07-29T04:16:53;18.30;99.90
23869;DHT22;12115;47.128;15.422;2022-07-29T04:19:20;18.30;99.90
23869;DHT22;12115;47.128;15.422;2022-07-29T04:21:48;18.30;99.90
23869;DHT22;12115;47.128;15.422;2022-07-29T04:24:15;18.40;99.90
23869;DHT22;12115;47.128;15.422;2022-07-29T04:26:45;18.30;99.90
23869;DHT22;12115;47.128;15.422;2022-07-29T04:29:12;18.40;99.90
23869;DHT22;12115;47.128;15.422;2022-07-29T04:31:41;18.10;99.90
23869;DHT22;12115;47.128;15.422;2022-07-29T04:34:09;18.00;99.90
23869;DHT22;12115;47.128;15.422;2022-07-29T04:36:36;18.10;99.90
23869;DHT22;12115;47.128;15.422;2022-07-29T04:39:04;18.00;99.90
23869;DHT22;12115;47.128;15.422;2022-07-29T04:41:31;18.00;99.90
23869;DHT22;12115;47.128;15.422;2022-07-29T04:44:00;18.10;99.90
23869;DHT22;12115;47.128;15.422;2022-07-29T04:46:33;18.20;99.90
23869;DHT22;12115;47.128;15.422;2022-07-29T04:49:01;18.30;99.90
23869;DHT22;12115;47.128;15.422;2022-07-29T04:51:29;18.30;99.90
23869;DHT22;12115;47.128;15.422;2022-07-29T04:53:56;18.30;99.90
23869;DHT22;12115;47.128;15.422;2022-07-29T04:56:23;18.40;99.90
23869;DHT22;12115;47.128;15.422;2022-07-29T04:58:50;18.40;99.90
23869;DHT22;12115;47.128;15.422;2022-07-29T05:01:18;18.50;99.90
23869;DHT22;12115;47.128;15.422;2022-07-29T05:03:45;18.50;99.90
23869;DHT22;12115;47.128;15.422;2022-07-29T05:06:12;18.60;99.90
23869;DHT22;12115;47.128;15.422;2022-07-29T05:08:39;18.60;99.90
23869;DHT22;12115;47.128;15.422;2022-07-29T05:11:07;18.70;99.90
23869;DHT22;12115;47.128;15.422;2022-07-29T05:13:38;18.70;99.90
23869;DHT22;12115;47.128;15.422;2022-07-29T05:16:13;18.80;99.90
23869;DHT22;12115;47.128;15.422;2022-07-29T05:18:40;18.80;99.90
23869;DHT22;12115;47.128;15.422;2022-07-29T05:21:07;18.90;99.90
23869;DHT22;12115;47.128;15.422;2022-07-29T05:23:34;18.90;99.90
23869;DHT22;12115;47.128;15.422;2022-07-29T05:26:02;19.00;99.90
23869;DHT22;12115;47.128;15.422;2022-07-29T05:28:32;19.10;99.90
23869;DHT22;12115;47.128;15.422;2022-07-29T05:30:59;19.10;99.90
23869;DHT22;12115;47.128;15.422;2022-07-29T05:33:26;19.10;99.90
23869;DHT22;12115;47.128;15.422;2022-07-29T05:36:04;19.10;99.90
23869;DHT22;12115;47.128;15.422;2022-07-29T05:38:34;19.30;99.90
23869;DHT22;12115;47.128;15.422;2022-07-29T05:41:01;19.30;99.90
23869;DHT22;12115;47.128;15.422;2022-07-29T05:43:28;19.40;99.90
23869;DHT22;12115;47.128;15.422;2022-07-29T05:45:56;19.50;99.90
23869;DHT22;12115;47.128;15.422;2022-07-29T05:48:24;19.70;99.90
23869;DHT22;12115;47.128;15.422;2022-07-29T05:50:51;19.80;99.90
23869;DHT22;12115;47.128;15.422;2022-07-29T05:53:18;19.80;99.90
23869;DHT22;12115;47.128;15.422;2022-07-29T05:55:50;19.90;99.90
23869;DHT22;12115;47.128;15.422;2022-07-29T05:58:17;20.00;99.90
23869;DHT22;12115;47.128;15.422;2022-07-29T06:00:45;20.10;99.90
23869;DHT22;12115;47.128;15.422;2022-07-29T06:03:12;20.10;99.90
23869;DHT22;12115;47.128;15.422;2022-07-29T06:05:39;20.20;99.90
23869;DHT22;12115;47.128;15.422;2022-07-29T06:08:06;20.30;99.90
23869;DHT22;12115;47.128;15.422;2022-07-29T06:10:37;20.30;99.90
23869;DHT22;12115;47.128;15.422;2022-07-29T06:13:04;20.40;99.90
23869;DHT22;12115;47.128;15.422;2022-07-29T06:15:31;20.40;99.90
23869;DHT22;12115;47.128;15.422;2022-07-29T06:17:58;20.50;99.90
23869;DHT22;12115;47.128;15.422;2022-07-29T06:20:31;20.60;99.90
23869;DHT22;12115;47.128;15.422;2022-07-29T06:22:59;20.60;99.90
23869;DHT22;12115;47.128;15.422;2022-07-29T06:25:27;20.60;99.90
23869;DHT22;12115;47.128;15.422;2022-07-29T06:27:57;20.60;99.90
23869;DHT22;12115;47.128;15.422;2022-07-29T06:30:24;20.80;99.90
23869;DHT22;12115;47.128;15.422;2022-07-29T06:32:52;20.90;99.90
23869;DHT22;12115;47.128;15.422;2022-07-29T06:35:19;21.10;99.90
23869;DHT22;12115;47.128;15.422;2022-07-29T06:38:06;21.20;99.90
23869;DHT22;12115;47.128;15.422;2022-07-29T06:40:53;21.40;99.90
23869;DHT22;12115;47.128;15.422;2022-07-29T06:43:40;21.50;99.90
23869;DHT22;12115;47.128;15.422;2022-07-29T06:46:18;21.60;99.90
23869;DHT22;12115;47.128;15.422;2022-07-29T06:48:46;21.80;99.90
23869;DHT22;12115;47.128;15.422;2022-07-29T06:51:17;21.80;99.90
23869;DHT22;12115;47.128;15.422;2022-07-29T06:53:50;21.90;99.90
23869;DHT22;12115;47.128;15.422;2022-07-29T06:56:27;21.90;99.90
23869;DHT22;12115;47.128;15.422;2022-07-29T06:58:54;21.90;99.90
23869;DHT22;12115;47.128;15.422;2022-07-29T07:01:21;22.00;99.90
23869;DHT22;12115;47.128;15.422;2022-07-29T07:03:48;22.00;99.90
23869;DHT22;12115;47.128;15.422;2022-07-29T07:06:15;22.10;99.90
23869;DHT22;12115;47.128;15.422;2022-07-29T07:08:43;22.30;99.90
23869;DHT22;12115;47.128;15.422;2022-07-29T07:11:10;22.30;99.90
23869;DHT22;12115;47.128;15.422;2022-07-29T07:13:38;22.40;99.90
23869;DHT22;12115;47.128;15.422;2022-07-29T07:16:05;22.40;99.90
23869;DHT22;12115;47.128;15.422;2022-07-29T07:18:32;22.40;99.90
23869;DHT22;12115;47.128;15.422;2022-07-29T07:20:59;22.60;99.90
23869;DHT22;12115;47.128;15.422;2022-07-29T07:23:26;22.70;99.90
23869;DHT22;12115;47.128;15.422;2022-07-29T07:25:53;22.80;99.90
23869;DHT22;12115;47.128;15.422;2022-07-29T07:28:20;22.80;99.90
23869;DHT22;12115;47.128;15.422;2022-07-29T07:30:51;23.00;99.90
23869;DHT22;12115;47.128;15.422;2022-07-29T07:33:18;23.10;99.90
23869;DHT22;12115;47.128;15.422;2022-07-29T07:35:46;23.10;99.90
23869;DHT22;12115;47.128;15.422;2022-07-29T07:38:13;23.20;99.90
23869;DHT22;12115;47.128;15.422;2022-07-29T07:40:41;23.30;99.90
23869;DHT22;12115;47.128;15.422;2022-07-29T07:43:08;23.40;99.90
23869;DHT22;12115;47.128;15.422;2022-07-29T07:45:35;23.50;99.90
23869;DHT22;12115;47.128;15.422;2022-07-29T07:48:04;23.50;99.90
23869;DHT22;12115;47.128;15.422;2022-07-29T07:50:31;23.60;99.90
23869;DHT22;12115;47.128;15.422;2022-07-29T07:52:59;23.80;99.90
23869;DHT22;12115;47.128;15.422;2022-07-29T07:55:28;23.80;99.90
23869;DHT22;12115;47.128;15.422;2022-07-29T07:58:16;23.90;99.90
23869;DHT22;12115;47.128;15.422;2022-07-29T08:00:43;24.00;99.90
23869;DHT22;12115;47.128;15.422;2022-07-29T08:03:10;23.90;99.90
23869;DHT22;12115;47.128;15.422;2022-07-29T08:05:43;24.00;99.90
23869;DHT22;12115;47.128;15.422;2022-07-29T08:08:10;24.20;99.90
23869;DHT22;12115;47.128;15.422;2022-07-29T08:10:37;24.20;99.90
23869;DHT22;12115;47.128;15.422;2022-07-29T08:13:20;24.30;99.90
23869;DHT22;12115;47.128;15.422;2022-07-29T08:15:48;24.40;99.90
23869;DHT22;12115;47.128;15.422;2022-07-29T08:18:25;24.50;99.90
23869;DHT22;12115;47.128;15.422;2022-07-29T08:20:52;24.60;99.90
23869;DHT22;12115;47.128;15.422;2022-07-29T08:23:19;24.70;99.90
23869;DHT22;12115;47.128;15.422;2022-07-29T08:25:46;24.90;99.90
23869;DHT22;12115;47.128;15.422;2022-07-29T08:28:16;25.00;99.90
23869;DHT22;12115;47.128;15.422;2022-07-29T08:30:44;25.10;99.90
23869;DHT22;12115;47.128;15.422;2022-07-29T08:33:11;25.30;99.90
23869;DHT22;12115;47.128;15.422;2022-07-29T08:35:38;25.30;99.90
23869;DHT22;12115;47.128;15.422;2022-07-29T08:38:05;25.40;99.90
23869;DHT22;12115;47.128;15.422;2022-07-29T08:40:32;25.40;99.90
23869;DHT22;12115;47.128;15.422;2022-07-29T08:43:09;25.50;99.90
23869;DHT22;12115;47.128;15.422;2022-07-29T08:45:48;25.60;99.90
23869;DHT22;12115;47.128;15.422;2022-07-29T08:48:17;25.60;99.90
23869;DHT22;12115;47.128;15.422;2022-07-29T08:50:45;25.70;99.90
23869;DHT22;12115;47.128;15.422;2022-07-29T08:53:17;25.80;99.90
23869;DHT22;12115;47.128;15.422;2022-07-29T08:55:46;26.00;99.90
23869;DHT22;12115;47.128;15.422;2022-07-29T08:58:15;26.10;99.90
23869;DHT22;12115;47.128;15.422;2022-07-29T09:00:50;26.20;99.90
23869;DHT22;12115;47.128;15.422;2022-07-29T09:03:20;26.20;99.90
23869;DHT22;12115;47.128;15.422;2022-07-29T09:05:49;26.30;99.90
23869;DHT22;12115;47.128;15.422;2022-07-29T09:08:17;26.50;99.90
23869;DHT22;12115;47.128;15.422;2022-07-29T09:10:45;26.40;99.90
23869;DHT22;12115;47.128;15.422;2022-07-29T09:13:12;26.50;99.90
23869;DHT22;12115;47.128;15.422;2022-07-29T09:15:39;26.30;99.90
23869;DHT22;12115;47.128;15.422;2022-07-29T09:18:06;26.20;99.90
23869;DHT22;12115;47.128;15.422;2022-07-29T09:20:51;26.10;99.40
23869;DHT22;12115;47.128;15.422;2022-07-29T09:23:37;26.00;99.20
23869;DHT22;12115;47.128;15.422;2022-07-29T09:26:06;25.90;99.40
23869;DHT22;12115;47.128;15.422;2022-07-29T09:28:33;25.90;99.90
23869;DHT22;12115;47.128;15.422;2022-07-29T09:31:00;25.90;99.20
23869;DHT22;12115;47.128;15.422;2022-07-29T09:33:33;25.90;99.30
23869;DHT22;12115;47.128;15.422;2022-07-29T09:36:08;25.90;99.30
23869;DHT22;12115;47.128;15.422;2022-07-29T09:38:35;25.90;99.70
23869;DHT22;12115;47.128;15.422;2022-07-29T09:41:06;25.90;99.90
23869;DHT22;12115;47.128;15.422;2022-07-29T09:43:35;25.90;99.70
23869;DHT22;12115;47.128;15.422;2022-07-29T09:46:15;25.90;99.60
23869;DHT22;12115;47.128;15.422;2022-07-29T09:48:42;25.90;99.80
23869;DHT22;12115;47.128;15.422;2022-07-29T09:51:19;25.90;99.90
23869;DHT22;12115;47.128;15.422;2022-07-29T09:53:52;26.10;99.90
23869;DHT22;12115;47.128;15.422;2022-07-29T09:56:19;26.10;99.90
23869;DHT22;12115;47.128;15.422;2022-07-29T09:58:46;26.20;99.40
23869;DHT22;12115;47.128;15.422;2022-07-29T10:01:13;26.20;98.50
23869;DHT22;12115;47.128;15.422;2022-07-29T10:04:02;26.20;99.00
23869;DHT22;12115;47.128;15.422;2022-07-29T10:06:29;26.30;99.00
23869;DHT22;12115;47.128;15.422;2022-07-29T10:09:07;26.30;98.70
23869;DHT22;12115;47.128;15.422;2022-07-29T10:11:35;26.40;98.50
23869;DHT22;12115;47.128;15.422;2022-07-29T10:14:15;26.40;98.30
23869;DHT22;12115;47.128;15.422;2022-07-29T10:16:43;26.40;98.90
23869;DHT22;12115;47.128;15.422;2022-07-29T10:19:10;26.50;99.50
23869;DHT22;12115;47.128;15.422;2022-07-29T10:21:37;26.50;99.40
23869;DHT22;12115;47.128;15.422;2022-07-29T10:24:06;26.50;98.70
23869;DHT22;12115;47.128;15.422;2022-07-29T10:26:41;26.40;98.20
23869;DHT22;12115;47.128;15.422;2022-07-29T10:29:09;26.30;98.20
23869;DHT22;12115;47.128;15.422;2022-07-29T10:43:37;25.90;99.60
23869;DHT22;12115;47.128;15.422;2022-07-29T10:46:08;25.80;99.80
23869;DHT22;12115;47.128;15.422;2022-07-29T10:49:12;25.90;99.80
23869;DHT22;12115;47.128;15.422;2022-07-29T10:51:54;25.90;99.50
23869;DHT22;12115;47.128;15.422;2022-07-29T10:57:12;25.90;99.90
23869;DHT22;12115;47.128;15.422;2022-07-29T10:59:40;25.90;99.00
23869;DHT22;12115;47.128;15.422;2022-07-29T11:07:40;26.20;99.00
23869;DHT22;12115;47.128;15.422;2022-07-29T11:15:14;26.40;97.90
23869;DHT22;12115;47.128;15.422;2022-07-29T11:18:04;26.40;97.00
23869;DHT22;12115;47.128;15.422;2022-07-29T11:20:48;26.60;96.70
23869;DHT22;12115;47.128;15.422;2022-07-29T11:28:52;26.90;96.60
23869;DHT22;12115;47.128;15.422;2022-07-29T11:39:37;27.20;96.50
23869;DHT22;12115;47.128;15.422;2022-07-29T11:47:56;27.10;95.10
23869;DHT22;12115;47.128;15.422;2022-07-29T11:50:44;27.20;95.20
23869;DHT22;12115;47.128;15.422;2022-07-29T11:53:14;27.30;95.70
23869;DHT22;12115;47.128;15.422;2022-07-29T11:55:42;27.60;95.50
23869;DHT22;12115;47.128;15.422;2022-07-29T11:58:22;27.60;94.90
23869;DHT22;12115;47.128;15.422;2022-07-29T12:00:52;27.50;95.20
23869;DHT22;12115;47.128;15.422;2022-07-29T12:03:26;27.50;95.60
23869;DHT22;12115;47.128;15.422;2022-07-29T12:06:02;27.50;95.80
23869;DHT22;12115;47.128;15.422;2022-07-29T12:08:29;27.50;95.80
23869;DHT22;12115;47.128;15.422;2022-07-29T12:10:57;27.50;95.50
23869;DHT22;12115;47.128;15.422;2022-07-29T12:13:24;27.50;96.90
23869;DHT22;12115;47.128;15.422;2022-07-29T12:16:04;27.50;97.40
23869;DHT22;12115;47.128;15.422;2022-07-29T12:18:31;27.50;97.80
23869;DHT22;12115;47.128;15.422;2022-07-29T12:21:02;27.40;96.30
23869;DHT22;12115;47.128;15.422;2022-07-29T12:23:31;27.30;96.60
23869;DHT22;12115;47.128;15.422;2022-07-29T12:26:04;27.30;96.60
23869;DHT22;12115;47.128;15.422;2022-07-29T12:28:37;27.30;96.30
23869;DHT22;12115;47.128;15.422;2022-07-29T12:31:05;27.30;96.40
23869;DHT22;12115;47.128;15.422;2022-07-29T12:33:39;27.30;97.20
23869;DHT22;12115;47.128;15.422;2022-07-29T12:36:07;27.30;97.70
23869;DHT22;12115;47.128;15.422;2022-07-29T12:38:43;27.20;96.00
23869;DHT22;12115;47.128;15.422;2022-07-29T12:41:10;27.10;96.60
23869;DHT22;12115;47.128;15.422;2022-07-29T12:43:52;27.10;97.40
23869;DHT22;12115;47.128;15.422;2022-07-29T12:46:19;27.20;97.70
23869;DHT22;12115;47.128;15.422;2022-07-29T12:48:51;27.30;96.90
23869;DHT22;12115;47.128;15.422;2022-07-29T12:51:34;27.40;97.00
23869;DHT22;12115;47.128;15.422;2022-07-29T12:54:14;27.50;96.70
23869;DHT22;12115;47.128;15.422;2022-07-29T12:56:43;27.50;97.70
23869;DHT22;12115;47.128;15.422;2022-07-29T12:59:21;27.60;97.00
23869;DHT22;12115;47.128;15.422;2022-07-29T13:01:50;27.70;96.50
23869;DHT22;12115;47.128;15.422;2022-07-29T13:04:29;27.80;96.60
23869;DHT22;12115;47.128;15.422;2022-07-29T13:07:04;27.80;96.10
23869;DHT22;12115;47.128;15.422;2022-07-29T13:09:41;27.70;95.60
23869;DHT22;12115;47.128;15.422;2022-07-29T13:12:10;27.60;97.40
23869;DHT22;12115;47.128;15.422;2022-07-29T13:14:42;27.70;96.90
23869;DHT22;12115;47.128;15.422;2022-07-29T13:17:21;27.50;94.80
23869;DHT22;12115;47.128;15.422;2022-07-29T13:19:51;27.50;94.70
23869;DHT22;12115;47.128;15.422;2022-07-29T13:22:23;27.40;95.90
23869;DHT22;12115;47.128;15.422;2022-07-29T13:25:01;27.40;95.60
23869;DHT22;12115;47.128;15.422;2022-07-29T13:27:31;27.40;95.50
23869;DHT22;12115;47.128;15.422;2022-07-29T13:30:05;27.40;96.10
23869;DHT22;12115;47.128;15.422;2022-07-29T13:32:33;27.50;97.20
23869;DHT22;12115;47.128;15.422;2022-07-29T13:35:06;27.50;96.20
23869;DHT22;12115;47.128;15.422;2022-07-29T13:37:35;27.60;95.40
23869;DHT22;12115;47.128;15.422;2022-07-29T13:40:06;27.80;95.70
23869;DHT22;12115;47.128;15.422;2022-07-29T13:42:34;28.00;94.70
23869;DHT22;12115;47.128;15.422;2022-07-29T13:45:02;27.90;94.00
23869;DHT22;12115;47.128;15.422;2022-07-29T13:47:29;27.90;94.20
23869;DHT22;12115;47.128;15.422;2022-07-29T13:50:00;28.00;94.50
23869;DHT22;12115;47.128;15.422;2022-07-29T13:52:27;28.10;94.90
23869;DHT22;12115;47.128;15.422;2022-07-29T13:54:54;28.00;92.30
23869;DHT22;12115;47.128;15.422;2022-07-29T13:57:21;27.90;91.40
23869;DHT22;12115;47.128;15.422;2022-07-29T13:59:49;27.80;91.20
23869;DHT22;12115;47.128;15.422;2022-07-29T14:02:21;27.60;91.70
23869;DHT22;12115;47.128;15.422;2022-07-29T14:04:52;27.60;92.50
23869;DHT22;12115;47.128;15.422;2022-07-29T14:07:19;27.70;92.80
23869;DHT22;12115;47.128;15.422;2022-07-29T14:09:46;27.70;92.90
23869;DHT22;12115;47.128;15.422;2022-07-29T14:12:13;27.80;93.60
23869;DHT22;12115;47.128;15.422;2022-07-29T14:14:41;27.80;94.80
23869;DHT22;12115;47.128;15.422;2022-07-29T14:17:08;27.80;95.20
23869;DHT22;12115;47.128;15.422;2022-07-29T14:19:36;27.90;94.90
23869;DHT22;12115;47.128;15.422;2022-07-29T14:22:06;27.90;94.50
23869;DHT22;12115;47.128;15.422;2022-07-29T14:24:35;27.90;94.70
23869;DHT22;12115;47.128;15.422;2022-07-29T14:27:04;27.80;95.30
23869;DHT22;12115;47.128;15.422;2022-07-29T14:29:31;27.70;95.60
23869;DHT22;12115;47.128;15.422;2022-07-29T14:32:07;27.80;95.60
23869;DHT22;12115;47.128;15.422;2022-07-29T14:34:37;27.80;96.10
23869;DHT22;12115;47.128;15.422;2022-07-29T14:37:05;27.80;96.30
23869;DHT22;12115;47.128;15.422;2022-07-29T14:39:34;27.90;96.80
23869;DHT22;12115;47.128;15.422;2022-07-29T14:42:10;27.80;97.00
23869;DHT22;12115;47.128;15.422;2022-07-29T14:44:39;27.90;97.10
23869;DHT22;12115;47.128;15.422;2022-07-29T14:47:08;27.90;97.30
23869;DHT22;12115;47.128;15.422;2022-07-29T14:49:35;27.90;96.80
23869;DHT22;12115;47.128;15.422;2022-07-29T14:52:03;27.90;97.20
23869;DHT22;12115;47.128;15.422;2022-07-29T14:54:30;27.90;96.90
23869;DHT22;12115;47.128;15.422;2022-07-29T14:56:57;27.90;97.20
23869;DHT22;12115;47.128;15.422;2022-07-29T14:59:25;27.90;97.90
23869;DHT22;12115;47.128;15.422;2022-07-29T15:01:53;27.90;98.20
23869;DHT22;12115;47.128;15.422;2022-07-29T15:04:20;27.90;98.10
23869;DHT22;12115;47.128;15.422;2022-07-29T15:06:47;27.90;96.70
23869;DHT22;12115;47.128;15.422;2022-07-29T15:09:14;27.90;96.90
23869;DHT22;12115;47.128;15.422;2022-07-29T15:11:41;27.80;97.40
23869;DHT22;12115;47.128;15.422;2022-07-29T15:14:08;27.90;96.60
23869;DHT22;12115;47.128;15.422;2022-07-29T15:16:37;27.90;96.50
23869;DHT22;12115;47.128;15.422;2022-07-29T15:19:10;27.80;96.50
23869;DHT22;12115;47.128;15.422;2022-07-29T15:21:37;27.90;95.00
23869;DHT22;12115;47.128;15.422;2022-07-29T15:24:16;27.80;95.00
23869;DHT22;12115;47.128;15.422;2022-07-29T15:26:44;27.70;96.80
23869;DHT22;12115;47.128;15.422;2022-07-29T15:29:11;27.70;96.60
23869;DHT22;12115;47.128;15.422;2022-07-29T15:31:38;27.70;96.30
23869;DHT22;12115;47.128;15.422;2022-07-29T15:34:07;27.70;95.70
23869;DHT22;12115;47.128;15.422;2022-07-29T15:36:34;27.70;95.90
23869;DHT22;12115;47.128;15.422;2022-07-29T15:39:19;27.70;95.50
23869;DHT22;12115;47.128;15.422;2022-07-29T15:41:46;27.80;95.90
23869;DHT22;12115;47.128;15.422;2022-07-29T15:44:13;27.80;95.30
23869;DHT22;12115;47.128;15.422;2022-07-29T15:46:41;27.90;94.60
23869;DHT22;12115;47.128;15.422;2022-07-29T15:49:28;27.90;94.30
23869;DHT22;12115;47.128;15.422;2022-07-29T15:52:16;27.90;94.70
23869;DHT22;12115;47.128;15.422;2022-07-29T15:54:44;28.00;94.10
23869;DHT22;12115;47.128;15.422;2022-07-29T15:57:11;28.00;94.00
23869;DHT22;12115;47.128;15.422;2022-07-29T15:59:39;27.90;92.00
23869;DHT22;12115;47.128;15.422;2022-07-29T16:02:06;27.80;93.40
23869;DHT22;12115;47.128;15.422;2022-07-29T16:04:33;27.80;93.60
23869;DHT22;12115;47.128;15.422;2022-07-29T16:07:00;27.80;93.50
23869;DHT22;12115;47.128;15.422;2022-07-29T16:09:27;27.80;93.90
23869;DHT22;12115;47.128;15.422;2022-07-29T16:11:54;27.70;93.90
23869;DHT22;12115;47.128;15.422;2022-07-29T16:14:22;27.70;94.40
23869;DHT22;12115;47.128;15.422;2022-07-29T16:16:54;27.70;94.20
23869;DHT22;12115;47.128;15.422;2022-07-29T16:19:22;27.70;95.40
23869;DHT22;12115;47.128;15.422;2022-07-29T16:21:49;27.60;96.40
23869;DHT22;12115;47.128;15.422;2022-07-29T16:24:16;27.60;96.80
23869;DHT22;12115;47.128;15.422;2022-07-29T16:26:43;27.60;96.30
23869;DHT22;12115;47.128;15.422;2022-07-29T16:29:10;27.60;96.70